Airfield :
LOGIN :

Register | Disclaimer

   EN    FR    IT 

 










Legend :    VFR   Marginal VFR   IFR   Intensive IFR   Very Intensive IFR
Visi :
Ceiling :
>= 8 km
>= 3000ft
5 to 8 km
1000 to 3000 ft
1500m to 5 km
500 to 1000 ft
800 to 1500m
200 to 500 ft
< 800m
< 200 ft
Symbols :   Thunderstorms  Fog  Heavy snow  Heavy precipitations  Wind > 20 kt
SIGMETs :     Misc.  Thunderstorms  Icing  Turbulence  Mountain Waves  Volcanic Ashes






- Airport Elevation : 405 ft
- IATA code : JMK


LGMK - Mikonos

CURRENT METAR :
  • 191650Z 02011KT CAVOK 30/18 Q1008

EXPIRED METARs :
  • 191620Z 01014KT CAVOK 32/19 Q1008
  • 191550Z 01014KT CAVOK 32/19 Q1008
  • 191520Z 36012KT CAVOK 34/18 Q1009
  • 191450Z 36012KT CAVOK 35/18 Q1009
  • 191420Z 36014KT CAVOK 35/20 Q1010
  • 191350Z 36014KT CAVOK 35/20 Q1010

TAF TAF LGMK
Valid from the 19 at 15:00 until the 20 at 00:00 UTC


191400Z 1915/1924 36015KT 9999 FEW018



MET'MAP, your aeronautical weather chart ! - Copyright ORBIFLY December 2007 - Disclaimer

ORBIFLY MET'MAP TEAM :

Programming & Development : Alexandra Zaïnal
Original concept : Baudouin d'Aumeries
Technical & hardware support : Manuel Goepfert
Assistance : Marc-Olivier Méhu




SOURCES & CREDITS :

   NOAA